Time;durP1;ratioP1;P1;durP2;ratioP2;P2;SDS_P1;SDS_P2;PMS_P1;PMS_P2;Temp;Humidity;BMP_temperature;BMP_pressure;BME280_temperature;BME280_humidity;BME280_pressure;Samples;Min_cycle;Max_cycle;Signal;HPM_P1;HPM_P2
2022/05/31 00:01:51;;;;;;;;;;;7.70;99.90;;;;;;5002979;28;19939;-68
2022/05/31 00:04:20;;;;;;;;;;;7.80;99.90;;;;;;5008755;28;19926;-67
2022/05/31 00:06:47;;;;;;;;;;;7.80;99.90;;;;;;5002386;28;20389;-68
2022/05/31 00:09:13;;;;;;;;;;;7.80;99.90;;;;;;5003124;28;19925;-67
2022/05/31 00:11:43;;;;;;;;;;;7.80;99.90;;;;;;5001017;28;19935;-67
2022/05/31 00:14:10;;;;;;;;;;;7.80;99.90;;;;;;5019348;28;19933;-67
2022/05/31 00:16:37;;;;;;;;;;;7.70;99.90;;;;;;5006833;28;19932;-67
2022/05/31 00:19:04;;;;;;;;;;;7.70;99.90;;;;;;5000813;28;19934;-67
2022/05/31 00:21:44;;;;;;;;;;;7.70;99.90;;;;;;5001356;28;19925;-67
2022/05/31 00:24:16;;;;;;;;;;;7.60;99.90;;;;;;5008890;28;19925;-67
2022/05/31 00:26:43;;;;;;;;;;;7.60;99.90;;;;;;5008908;28;19944;-67
2022/05/31 00:29:10;;;;;;;;;;;7.50;99.90;;;;;;5004339;28;19932;-67
2022/05/31 00:31:40;;;;;;;;;;;7.50;99.90;;;;;;5005262;28;19925;-67
2022/05/31 00:34:08;;;;;;;;;;;7.40;99.90;;;;;;4998190;28;19973;-67
2022/05/31 00:36:36;;;;;;;;;;;7.30;99.90;;;;;;5007089;28;20028;-67
2022/05/31 00:39:05;;;;;;;;;;;7.30;99.90;;;;;;5002037;28;19933;-67
2022/05/31 00:41:35;;;;;;;;;;;7.30;99.90;;;;;;5003000;28;19935;-67
2022/05/31 00:44:09;;;;;;;;;;;7.20;99.90;;;;;;5001813;28;20539;-67
2022/05/31 00:46:42;;;;;;;;;;;7.10;99.90;;;;;;5001270;28;19926;-67
2022/05/31 00:49:11;;;;;;;;;;;7.10;99.90;;;;;;4999186;28;19929;-68
2022/05/31 00:51:39;;;;;;;;;;;7.10;99.90;;;;;;5003374;28;19926;-67
2022/05/31 00:54:26;;;;;;;;;;;7.20;99.90;;;;;;4997820;28;19926;-67
2022/05/31 00:56:53;;;;;;;;;;;7.20;99.90;;;;;;4983365;28;19940;-67
2022/05/31 00:59:23;;;;;;;;;;;7.30;99.90;;;;;;4983137;28;19926;-67
2022/05/31 01:01:51;;;;;;;;;;;7.30;99.90;;;;;;4979322;28;19925;-67
2022/05/31 01:04:24;;;;;;;;;;;7.40;99.90;;;;;;4977043;28;19930;-67
2022/05/31 01:09:31;;;;;;;;;;;7.30;99.90;;;;;;5076074;27;20412;-66
2022/05/31 01:11:58;;;;;;;;;;;7.30;99.90;;;;;;5075044;28;20026;-66
2022/05/31 01:14:25;;;;;;;;;;;7.40;99.90;;;;;;5081363;28;19939;-67
2022/05/31 01:16:54;;;;;;;;;;;7.40;99.90;;;;;;5080356;28;20031;-67
2022/05/31 01:22:05;;;;;;;;;;;7.40;99.90;;;;;;5081296;28;20595;-67
2022/05/31 01:24:38;;;;;;;;;;;7.50;99.90;;;;;;5077828;28;19935;-67
2022/05/31 01:27:08;;;;;;;;;;;7.50;99.90;;;;;;5083889;28;19925;-66
2022/05/31 01:29:37;;;;;;;;;;;7.50;99.90;;;;;;5081891;28;19924;-67
2022/05/31 01:32:07;;;;;;;;;;;7.60;99.90;;;;;;5079653;28;19925;-67
2022/05/31 01:34:34;;;;;;;;;;;7.60;99.90;;;;;;5084235;28;20018;-67
2022/05/31 01:37:00;;;;;;;;;;;7.60;99.90;;;;;;5079421;28;19990;-67
2022/05/31 01:39:30;;;;;;;;;;;7.70;99.90;;;;;;5078315;28;20465;-67
2022/05/31 01:42:09;;;;;;;;;;;7.80;99.90;;;;;;5076260;28;19932;-66
2022/05/31 01:44:38;;;;;;;;;;;7.80;99.90;;;;;;5077463;28;20016;-67
2022/05/31 01:47:05;;;;;;;;;;;7.90;99.90;;;;;;5081632;28;19931;-67
2022/05/31 01:49:38;;;;;;;;;;;7.90;99.90;;;;;;5078530;28;20553;-67
2022/05/31 01:52:05;;;;;;;;;;;8.00;99.90;;;;;;5078198;28;19931;-67
2022/05/31 01:54:33;;;;;;;;;;;8.00;99.90;;;;;;5081130;28;19929;-67
2022/05/31 01:57:01;;;;;;;;;;;8.00;99.90;;;;;;5074066;28;20019;-67
2022/05/31 01:59:35;;;;;;;;;;;8.00;99.90;;;;;;5075753;28;20007;-67
2022/05/31 02:02:03;;;;;;;;;;;8.00;99.90;;;;;;5082585;28;19934;-67
2022/05/31 02:04:30;;;;;;;;;;;8.00;99.90;;;;;;5081983;28;19930;-67
2022/05/31 02:07:13;;;;;;;;;;;8.00;99.90;;;;;;5079954;28;20600;-67
2022/05/31 02:09:40;;;;;;;;;;;8.10;99.90;;;;;;5077664;28;19932;-67
2022/05/31 02:12:08;;;;;;;;;;;8.10;99.90;;;;;;5084428;28;19924;-67
2022/05/31 02:14:35;;;;;;;;;;;8.10;99.90;;;;;;5082009;28;20445;-67
2022/05/31 02:17:02;;;;;;;;;;;8.10;99.90;;;;;;5074356;28;19933;-66
2022/05/31 02:19:29;;;;;;;;;;;8.10;99.90;;;;;;5071612;28;19924;-67
2022/05/31 02:21:56;;;;;;;;;;;8.20;99.90;;;;;;5064902;28;20372;-67
2022/05/31 02:24:24;;;;;;;;;;;8.20;99.90;;;;;;5064777;28;19929;-67
2022/05/31 02:26:51;;;;;;;;;;;8.30;99.90;;;;;;5063033;28;20275;-67
2022/05/31 02:29:19;;;;;;;;;;;8.30;99.90;;;;;;5067420;28;19924;-65
2022/05/31 02:31:46;;;;;;;;;;;8.30;99.90;;;;;;5061191;28;19924;-67
2022/05/31 02:34:15;;;;;;;;;;;8.30;99.90;;;;;;5066659;28;19939;-66
2022/05/31 02:36:41;;;;;;;;;;;8.30;99.90;;;;;;5064882;28;19932;-66
2022/05/31 02:39:08;;;;;;;;;;;8.30;99.90;;;;;;5068143;28;19925;-67
2022/05/31 02:41:35;;;;;;;;;;;8.30;99.90;;;;;;5114855;22;19959;-70
2022/05/31 02:44:08;;;;;;;;;;;8.30;99.90;;;;;;5088514;28;19931;-66
2022/05/31 02:46:34;;;;;;;;;;;8.30;99.90;;;;;;5090543;28;19932;-67
2022/05/31 02:49:02;;;;;;;;;;;8.20;99.90;;;;;;5085712;28;19931;-66
2022/05/31 02:51:28;;;;;;;;;;;8.20;99.90;;;;;;5088673;28;19928;-67
2022/05/31 02:53:56;;;;;;;;;;;8.20;99.90;;;;;;5086813;28;20434;-66
2022/05/31 02:56:25;;;;;;;;;;;8.10;99.90;;;;;;5091207;28;20387;-66
2022/05/31 02:58:52;;;;;;;;;;;8.10;99.90;;;;;;5088405;28;19963;-66
2022/05/31 03:01:23;;;;;;;;;;;8.10;99.90;;;;;;5080937;28;19971;-66
2022/05/31 03:03:50;;;;;;;;;;;8.10;99.90;;;;;;5087098;28;19967;-67
2022/05/31 03:06:20;;;;;;;;;;;8.10;99.90;;;;;;5088690;28;19970;-67
2022/05/31 03:08:48;;;;;;;;;;;8.00;99.90;;;;;;5084403;28;19950;-66
2022/05/31 03:11:18;;;;;;;;;;;8.00;99.90;;;;;;5088936;28;19974;-66
2022/05/31 03:13:45;;;;;;;;;;;8.00;99.90;;;;;;5083455;28;20007;-67
2022/05/31 03:16:12;;;;;;;;;;;8.00;99.90;;;;;;5089785;28;19924;-67
2022/05/31 03:18:41;;;;;;;;;;;8.00;99.90;;;;;;5089099;28;20318;-67
2022/05/31 03:21:10;;;;;;;;;;;8.00;99.90;;;;;;5090283;28;19924;-66
2022/05/31 03:23:39;;;;;;;;;;;8.00;99.90;;;;;;5091073;28;19931;-66
2022/05/31 03:26:07;;;;;;;;;;;8.00;99.90;;;;;;5089439;28;19931;-66
2022/05/31 03:28:34;;;;;;;;;;;8.00;99.90;;;;;;5080935;28;19924;-66
2022/05/31 03:31:01;;;;;;;;;;;7.90;99.90;;;;;;5090152;28;19934;-66
2022/05/31 03:33:28;;;;;;;;;;;7.80;99.90;;;;;;5089057;28;20377;-66
2022/05/31 03:35:58;;;;;;;;;;;7.70;99.90;;;;;;5085965;28;19928;-66
2022/05/31 03:38:25;;;;;;;;;;;7.60;99.90;;;;;;5078382;28;19924;-66
2022/05/31 03:40:58;;;;;;;;;;;7.40;99.90;;;;;;5088551;28;19924;-66
2022/05/31 03:43:26;;;;;;;;;;;7.40;99.90;;;;;;5088946;28;19938;-66
2022/05/31 03:45:53;;;;;;;;;;;7.30;99.90;;;;;;5086825;28;19924;-66
2022/05/31 03:48:19;;;;;;;;;;;7.20;99.90;;;;;;5087604;28;19928;-66
2022/05/31 03:50:56;;;;;;;;;;;7.10;99.90;;;;;;5087908;28;19938;-67
2022/05/31 03:53:25;;;;;;;;;;;7.00;99.90;;;;;;5087691;28;19931;-66
2022/05/31 03:55:52;;;;;;;;;;;7.10;99.90;;;;;;5086336;28;19930;-66
2022/05/31 03:58:22;;;;;;;;;;;7.10;99.90;;;;;;5083625;28;19928;-67
2022/05/31 04:00:49;;;;;;;;;;;7.10;99.90;;;;;;5081314;28;20031;-67
2022/05/31 04:03:16;;;;;;;;;;;7.10;99.90;;;;;;5079672;28;19935;-66
2022/05/31 04:05:42;;;;;;;;;;;7.10;99.90;;;;;;5079404;28;20661;-67
2022/05/31 04:08:12;;;;;;;;;;;7.20;99.90;;;;;;5079063;28;19963;-67
2022/05/31 04:10:42;;;;;;;;;;;7.20;99.90;;;;;;5098670;28;19930;-66
2022/05/31 04:13:09;;;;;;;;;;;7.30;99.90;;;;;;5082903;28;19928;-66
2022/05/31 04:15:36;;;;;;;;;;;7.40;99.90;;;;;;5080369;28;20375;-67
2022/05/31 04:18:04;;;;;;;;;;;7.50;99.90;;;;;;5080142;28;19931;-67
2022/05/31 04:20:32;;;;;;;;;;;7.60;99.90;;;;;;5080759;28;20023;-67
2022/05/31 04:25:44;;;;;;;;;;;7.90;99.90;;;;;;5084665;28;19930;-66
2022/05/31 04:28:11;;;;;;;;;;;8.00;99.90;;;;;;5082542;28;19930;-66
2022/05/31 04:30:37;;;;;;;;;;;8.10;99.90;;;;;;5082271;28;20010;-66
2022/05/31 04:33:04;;;;;;;;;;;8.20;99.90;;;;;;5083559;28;19932;-65
2022/05/31 04:35:31;;;;;;;;;;;8.30;99.90;;;;;;5086300;28;20022;-65
2022/05/31 04:37:58;;;;;;;;;;;8.40;99.90;;;;;;5083905;28;20373;-66
2022/05/31 04:40:24;;;;;;;;;;;9.20;99.90;;;;;;5083500;28;19998;-65
2022/05/31 04:42:52;;;;;;;;;;;10.50;99.90;;;;;;5080176;28;19924;-65
2022/05/31 04:45:26;;;;;;;;;;;11.90;99.90;;;;;;5081176;28;20011;-66
2022/05/31 04:47:52;;;;;;;;;;;13.30;99.90;;;;;;5085341;28;19930;-66
2022/05/31 04:50:19;;;;;;;;;;;14.30;99.90;;;;;;5079988;28;19928;-66
2022/05/31 04:52:46;;;;;;;;;;;15.00;99.90;;;;;;5085210;28;19928;-66
2022/05/31 04:55:13;;;;;;;;;;;;;;;;;;5082644;28;19924;-66
2022/05/31 04:57:40;;;;;;;;;;;;;;;;;;5086044;28;19924;-66
2022/05/31 05:00:07;;;;;;;;;;;;;;;;;;5087591;28;20443;-66
2022/05/31 05:02:34;;;;;;;;;;;;;;;;;;5087231;28;19931;-66
2022/05/31 05:05:01;;;;;;;;;;;17.50;99.90;;;;;;5086478;28;19924;-66
2022/05/31 05:07:29;;;;;;;;;;;17.60;99.90;;;;;;5083861;28;19928;-66
2022/05/31 05:09:55;;;;;;;;;;;17.40;99.90;;;;;;5082951;28;19924;-66
2022/05/31 05:12:24;;;;;;;;;;;17.70;99.90;;;;;;5084495;28;19935;-66
2022/05/31 05:14:54;;;;;;;;;;;17.20;99.90;;;;;;5082783;28;19924;-67
2022/05/31 05:17:22;;;;;;;;;;;17.30;99.90;;;;;;5084395;28;19924;-67
2022/05/31 05:19:49;;;;;;;;;;;17.20;99.90;;;;;;5096759;28;19946;-64
2022/05/31 05:22:15;;;;;;;;;;;17.80;99.90;;;;;;5085770;28;19928;-67
2022/05/31 05:24:42;;;;;;;;;;;18.30;99.90;;;;;;5087511;28;20251;-66
2022/05/31 05:27:09;;;;;;;;;;;18.60;99.90;;;;;;5087124;28;20550;-66
2022/05/31 05:32:21;;;;;;;;;;;18.90;99.90;;;;;;5085474;28;20450;-63
2022/05/31 05:34:49;;;;;;;;;;;19.40;99.90;;;;;;5075319;28;19925;-64
2022/05/31 05:37:16;;;;;;;;;;;19.30;99.90;;;;;;5080359;28;19956;-67
2022/05/31 05:39:44;;;;;;;;;;;19.20;99.90;;;;;;5085715;28;20019;-67
2022/05/31 05:42:13;;;;;;;;;;;19.30;99.90;;;;;;5092219;28;19945;-67
2022/05/31 05:44:42;;;;;;;;;;;18.50;99.90;;;;;;5087182;28;19924;-66
2022/05/31 05:47:10;;;;;;;;;;;17.80;99.90;;;;;;5101488;28;19924;-67
2022/05/31 05:49:36;;;;;;;;;;;16.90;99.90;;;;;;5085172;28;20372;-65
2022/05/31 05:52:06;;;;;;;;;;;16.00;99.90;;;;;;5085425;28;19924;-66
2022/05/31 05:54:38;;;;;;;;;;;15.60;99.90;;;;;;5088237;28;20015;-66
2022/05/31 05:57:05;;;;;;;;;;;16.10;99.90;;;;;;5105844;27;20379;-67
2022/05/31 05:59:32;;;;;;;;;;;16.00;99.90;;;;;;5084850;28;19928;-66
2022/05/31 06:02:11;;;;;;;;;;;15.90;99.90;;;;;;5092273;28;20567;-64
2022/05/31 06:05:10;;;;;;;;;;;15.70;99.90;;;;;;5096980;27;19936;-66
2022/05/31 06:07:59;;;;;;;;;;;15.40;99.90;;;;;;5085644;28;20294;-66
2022/05/31 06:10:31;;;;;;;;;;;15.10;99.90;;;;;;5092710;28;19928;-66
2022/05/31 06:13:03;;;;;;;;;;;15.10;99.90;;;;;;5098983;28;19997;-67
2022/05/31 06:15:32;;;;;;;;;;;15.20;99.90;;;;;;5092981;28;19924;-68
2022/05/31 06:18:01;;;;;;;;;;;15.50;99.90;;;;;;5090789;28;20390;-67
2022/05/31 06:20:29;;;;;;;;;;;16.00;99.90;;;;;;5088064;28;19939;-66
2022/05/31 06:22:56;;;;;;;;;;;16.00;99.90;;;;;;5090926;28;19947;-66
2022/05/31 06:25:23;;;;;;;;;;;15.70;99.90;;;;;;5086620;28;19924;-66
2022/05/31 06:27:50;;;;;;;;;;;15.40;99.90;;;;;;5087920;28;19960;-66
2022/05/31 06:30:17;;;;;;;;;;;15.50;99.90;;;;;;5081062;28;19925;-67
2022/05/31 06:32:44;;;;;;;;;;;15.60;99.90;;;;;;5081993;28;20014;-66
2022/05/31 06:35:14;;;;;;;;;;;15.70;99.90;;;;;;5078403;28;20011;-66
2022/05/31 06:37:41;;;;;;;;;;;15.60;99.90;;;;;;5079327;28;19934;-65
2022/05/31 06:40:08;;;;;;;;;;;15.50;99.90;;;;;;5088988;28;20007;-64
2022/05/31 06:42:35;;;;;;;;;;;15.60;99.90;;;;;;5089676;28;20011;-63
2022/05/31 06:45:02;;;;;;;;;;;16.60;99.90;;;;;;5081285;28;20233;-65
2022/05/31 06:47:29;;;;;;;;;;;17.50;99.90;;;;;;5079479;28;19924;-64
2022/05/31 06:49:58;;;;;;;;;;;18.40;99.90;;;;;;5086012;28;19939;-64
2022/05/31 06:57:58;;;;;;;;;;;18.90;99.90;;;;;;5083839;28;19928;-67
2022/05/31 07:00:25;;;;;;;;;;;18.50;99.90;;;;;;5084392;28;19931;-68
2022/05/31 07:02:54;;;;;;;;;;;18.10;99.90;;;;;;5087981;28;19930;-67
2022/05/31 07:05:21;;;;;;;;;;;17.90;99.90;;;;;;5083098;28;19924;-66
2022/05/31 07:07:51;;;;;;;;;;;17.90;99.90;;;;;;5095431;28;19930;-64
2022/05/31 07:10:17;;;;;;;;;;;18.00;99.90;;;;;;5086892;28;19928;-67
2022/05/31 07:12:44;;;;;;;;;;;18.90;99.90;;;;;;5090011;28;19930;-64
2022/05/31 07:15:11;;;;;;;;;;;20.10;99.90;;;;;;5086691;28;19928;-65
2022/05/31 07:17:38;;;;;;;;;;;19.40;99.90;;;;;;5087678;28;19924;-63
2022/05/31 07:20:05;;;;;;;;;;;18.70;99.90;;;;;;5087979;28;20039;-63
2022/05/31 07:22:35;;;;;;;;;;;18.00;99.90;;;;;;5084574;28;19928;-65
2022/05/31 07:25:02;;;;;;;;;;;17.50;99.90;;;;;;5080822;28;19924;-65
2022/05/31 07:27:29;;;;;;;;;;;18.00;99.90;;;;;;5085693;28;19995;-65
2022/05/31 07:29:55;;;;;;;;;;;19.30;99.90;;;;;;5084984;28;20032;-64
2022/05/31 07:32:22;;;;;;;;;;;21.40;99.90;;;;;;5088027;28;19924;-65
2022/05/31 07:35:08;;;;;;;;;;;21.60;99.90;;;;;;5080445;28;19924;-63
2022/05/31 07:37:35;;;;;;;;;;;21.50;98.80;;;;;;5082461;28;20019;-64
2022/05/31 07:40:05;;;;;;;;;;;20.50;98.90;;;;;;5086378;28;20374;-63
2022/05/31 07:42:32;;;;;;;;;;;20.30;99.60;;;;;;5082868;28;19925;-64
2022/05/31 07:44:59;;;;;;;;;;;19.50;99.80;;;;;;5083406;28;19924;-64
2022/05/31 07:47:26;;;;;;;;;;;19.10;99.90;;;;;;5083491;28;20027;-65
2022/05/31 07:49:53;;;;;;;;;;;19.20;99.90;;;;;;5086470;28;20317;-64
2022/05/31 07:52:20;;;;;;;;;;;19.40;99.90;;;;;;5082784;28;19924;-63
2022/05/31 07:54:46;;;;;;;;;;;19.50;99.90;;;;;;5087676;28;19932;-62
2022/05/31 07:59:59;;;;;;;;;;;18.80;99.90;;;;;;5080221;28;19934;-65
2022/05/31 08:02:25;;;;;;;;;;;18.70;99.90;;;;;;5080519;28;19977;-64
2022/05/31 08:04:52;;;;;;;;;;;18.70;99.90;;;;;;5079023;28;19975;-66
2022/05/31 08:07:19;;;;;;;;;;;19.00;99.90;;;;;;5086173;28;19928;-65
2022/05/31 08:09:45;;;;;;;;;;;19.50;99.90;;;;;;5089790;28;19924;-64
2022/05/31 08:12:12;;;;;;;;;;;20.80;99.90;;;;;;5077441;28;20298;-65
2022/05/31 08:14:41;;;;;;;;;;;22.00;99.10;;;;;;5081936;28;22181;-63
2022/05/31 08:17:10;;;;;;;;;;;22.30;98.20;;;;;;5084507;28;20583;-66
2022/05/31 08:19:43;;;;;;;;;;;22.00;98.50;;;;;;5084347;28;19924;-65
2022/05/31 08:22:15;;;;;;;;;;;21.90;98.40;;;;;;5082411;28;20054;-66
2022/05/31 08:24:42;;;;;;;;;;;22.90;98.00;;;;;;5084049;28;19930;-66
2022/05/31 08:27:13;;;;;;;;;;;23.30;98.30;;;;;;5083125;28;20337;-65
2022/05/31 08:29:42;;;;;;;;;;;24.00;97.10;;;;;;5082768;28;19924;-65
2022/05/31 08:32:09;;;;;;;;;;;23.60;96.60;;;;;;5075608;28;19924;-63
2022/05/31 08:34:36;;;;;;;;;;;22.70;96.80;;;;;;5080955;28;19931;-65
2022/05/31 08:37:03;;;;;;;;;;;22.00;96.80;;;;;;5083660;28;20015;-64
2022/05/31 08:39:30;;;;;;;;;;;22.20;96.90;;;;;;5080899;28;20445;-65
2022/05/31 08:42:01;;;;;;;;;;;22.10;96.70;;;;;;5084813;28;19935;-64
2022/05/31 08:44:28;;;;;;;;;;;22.30;96.90;;;;;;5094698;28;20274;-65
2022/05/31 08:47:00;;;;;;;;;;;23.10;96.50;;;;;;5084774;28;19935;-65
2022/05/31 08:52:48;;;;;;;;;;;23.90;94.70;;;;;;5077508;28;20512;-65
2022/05/31 08:58:26;;;;;;;;;;;23.60;94.80;;;;;;5086311;28;19972;-65
2022/05/31 09:00:54;;;;;;;;;;;23.50;94.70;;;;;;5081614;28;19924;-65
2022/05/31 09:03:35;;;;;;;;;;;22.90;94.40;;;;;;5079664;28;20435;-65
2022/05/31 09:06:07;;;;;;;;;;;23.00;95.20;;;;;;5081951;28;19924;-63
2022/05/31 09:08:46;;;;;;;;;;;22.70;95.60;;;;;;5086264;28;20406;-63
2022/05/31 09:11:18;;;;;;;;;;;21.80;96.00;;;;;;5081802;28;19970;-64
2022/05/31 09:13:49;;;;;;;;;;;21.50;96.50;;;;;;5087244;28;20019;-64
2022/05/31 09:16:22;;;;;;;;;;;21.90;96.70;;;;;;5081179;28;19925;-63
2022/05/31 09:18:51;;;;;;;;;;;22.90;95.80;;;;;;5080499;28;19928;-63
2022/05/31 09:21:38;;;;;;;;;;;23.60;95.60;;;;;;5078103;28;19935;-66
2022/05/31 09:24:07;;;;;;;;;;;24.30;95.40;;;;;;5078113;28;19924;-64
2022/05/31 09:26:52;;;;;;;;;;;25.10;94.70;;;;;;5083213;28;19932;-64
2022/05/31 09:29:21;;;;;;;;;;;24.60;94.50;;;;;;5081563;28;20011;-62
2022/05/31 09:32:07;;;;;;;;;;;24.20;93.60;;;;;;5085547;28;19935;-65
2022/05/31 09:34:47;;;;;;;;;;;24.70;94.10;;;;;;5085133;28;19963;-63
2022/05/31 09:37:13;;;;;;;;;;;24.40;93.30;;;;;;5080705;28;19924;-64
2022/05/31 09:39:55;;;;;;;;;;;23.70;94.40;;;;;;5088998;28;19925;-64
2022/05/31 09:42:24;;;;;;;;;;;23.30;94.20;;;;;;5079956;28;19924;-64
2022/05/31 09:44:59;;;;;;;;;;;22.80;94.40;;;;;;5088660;28;19930;-65
2022/05/31 09:47:26;;;;;;;;;;;23.80;94.50;;;;;;5089701;28;19963;-66
2022/05/31 09:49:54;;;;;;;;;;;24.70;94.00;;;;;;5075283;28;19932;-65
2022/05/31 09:52:30;;;;;;;;;;;24.80;93.30;;;;;;5082122;28;19928;-66
2022/05/31 09:58:11;;;;;;;;;;;25.60;92.30;;;;;;5081818;28;19959;-64
2022/05/31 10:01:05;;;;;;;;;;;25.80;92.40;;;;;;5087978;28;19925;-66
2022/05/31 10:03:37;;;;;;;;;;;25.30;91.70;;;;;;5064667;28;20381;-64
2022/05/31 10:06:04;;;;;;;;;;;25.90;91.50;;;;;;5083176;28;19924;-64
2022/05/31 10:08:32;;;;;;;;;;;26.50;91.00;;;;;;5087393;28;19924;-66
2022/05/31 10:11:04;;;;;;;;;;;26.40;90.70;;;;;;5089376;28;20519;-64
2022/05/31 10:13:34;;;;;;;;;;;26.20;90.50;;;;;;5082796;28;19925;-65
2022/05/31 10:16:08;;;;;;;;;;;26.10;90.90;;;;;;5085676;28;20620;-66
2022/05/31 10:18:43;;;;;;;;;;;26.50;90.70;;;;;;5082191;28;20343;-65
2022/05/31 10:21:11;;;;;;;;;;;26.70;90.60;;;;;;5080288;28;19924;-65
2022/05/31 10:23:41;;;;;;;;;;;27.40;90.50;;;;;;5082869;28;19978;-65
2022/05/31 10:26:07;;;;;;;;;;;28.30;89.60;;;;;;5089247;28;19924;-67
2022/05/31 10:28:40;;;;;;;;;;;28.50;89.80;;;;;;5085639;28;20031;-66
2022/05/31 10:31:20;;;;;;;;;;;28.50;87.50;;;;;;5086629;28;20277;-67
2022/05/31 10:33:55;;;;;;;;;;;28.60;88.70;;;;;;5074985;28;19924;-67
2022/05/31 10:36:23;;;;;;;;;;;29.10;87.50;;;;;;5080765;28;19931;-65
2022/05/31 10:38:51;;;;;;;;;;;28.70;87.10;;;;;;5082123;28;19942;-64
2022/05/31 10:41:20;;;;;;;;;;;27.30;86.90;;;;;;5076642;28;19928;-65
2022/05/31 10:44:15;;;;;;;;;;;27.10;87.10;;;;;;5087687;28;19924;-65
2022/05/31 10:46:49;;;;;;;;;;;26.90;88.30;;;;;;5083414;28;19924;-64
2022/05/31 10:49:22;;;;;;;;;;;26.70;86.70;;;;;;5083028;28;19924;-64
2022/05/31 10:52:08;;;;;;;;;;;26.80;87.60;;;;;;5095242;28;19931;-66
2022/05/31 10:54:47;;;;;;;;;;;27.10;88.70;;;;;;5079423;28;20011;-65
2022/05/31 10:57:16;;;;;;;;;;;27.40;86.90;;;;;;5089144;28;19924;-64
2022/05/31 10:59:45;;;;;;;;;;;27.40;87.30;;;;;;5084114;28;19940;-63
2022/05/31 11:02:27;;;;;;;;;;;26.80;88.40;;;;;;5086977;28;19927;-64
2022/05/31 11:04:56;;;;;;;;;;;26.50;88.20;;;;;;5082184;28;19935;-66
2022/05/31 11:07:29;;;;;;;;;;;26.20;87.40;;;;;;5083339;28;19936;-65
2022/05/31 11:12:53;;;;;;;;;;;26.80;87.30;;;;;;5080600;28;19950;-65
2022/05/31 11:15:35;;;;;;;;;;;27.20;87.10;;;;;;5081033;28;19934;-64
2022/05/31 11:18:31;;;;;;;;;;;26.90;89.50;;;;;;5083900;28;20319;-66
2022/05/31 11:20:57;;;;;;;;;;;26.80;88.80;;;;;;5067371;28;19925;-64
2022/05/31 11:23:44;;;;;;;;;;;26.70;86.60;;;;;;5086021;28;20727;-66
2022/05/31 11:26:11;;;;;;;;;;;26.50;86.90;;;;;;5077912;28;19924;-65
2022/05/31 11:29:09;;;;;;;;;;;26.30;87.20;;;;;;5086492;28;20401;-66
2022/05/31 11:31:43;;;;;;;;;;;26.40;85.90;;;;;;5083143;28;20280;-64
2022/05/31 11:34:10;;;;;;;;;;;25.90;85.40;;;;;;5079260;28;19931;-66
2022/05/31 11:36:55;;;;;;;;;;;26.30;86.60;;;;;;5082278;28;19952;-67
2022/05/31 11:39:28;;;;;;;;;;;26.80;87.20;;;;;;5083505;28;19934;-67
2022/05/31 11:42:14;;;;;;;;;;;26.80;86.90;;;;;;5084519;28;19930;-65
2022/05/31 11:44:59;;;;;;;;;;;26.70;86.70;;;;;;5082782;28;19932;-65
2022/05/31 11:47:46;;;;;;;;;;;26.40;88.50;;;;;;5078122;28;19928;-65
2022/05/31 11:50:14;;;;;;;;;;;26.60;87.90;;;;;;5081678;28;20510;-66
2022/05/31 11:52:44;;;;;;;;;;;26.90;87.20;;;;;;5078545;28;19924;-66
2022/05/31 11:55:31;;;;;;;;;;;26.90;85.70;;;;;;5081526;28;19935;-67
2022/05/31 11:57:58;;;;;;;;;;;27.30;88.00;;;;;;5081602;28;19928;-65
2022/05/31 12:00:27;;;;;;;;;;;26.90;84.20;;;;;;5086199;28;19934;-65
2022/05/31 12:03:13;;;;;;;;;;;26.60;83.30;;;;;;5084098;28;19935;-64
2022/05/31 12:05:43;;;;;;;;;;;26.90;84.00;;;;;;5085040;28;19978;-66
2022/05/31 12:08:11;;;;;;;;;;;27.10;84.80;;;;;;5086605;28;19950;-65
2022/05/31 12:10:41;;;;;;;;;;;27.50;84.60;;;;;;5083332;28;20038;-65
2022/05/31 12:13:10;;;;;;;;;;;27.80;83.70;;;;;;5081585;28;19928;-67
2022/05/31 12:15:39;;;;;;;;;;;27.90;84.10;;;;;;5084784;28;19947;-65
2022/05/31 12:18:19;;;;;;;;;;;28.00;83.50;;;;;;5085092;28;20024;-67
2022/05/31 12:21:04;;;;;;;;;;;27.60;84.00;;;;;;5089364;28;19931;-66
2022/05/31 12:23:38;;;;;;;;;;;27.00;83.80;;;;;;5077070;28;20635;-66
2022/05/31 12:26:14;;;;;;;;;;;26.80;82.50;;;;;;5084855;28;21855;-65
2022/05/31 12:29:00;;;;;;;;;;;26.70;79.90;;;;;;5089120;28;19967;-65
2022/05/31 12:31:28;;;;;;;;;;;26.00;79.90;;;;;;5083531;28;19938;-65
2022/05/31 12:34:21;;;;;;;;;;;26.50;80.10;;;;;;5084695;28;19931;-65
2022/05/31 12:37:02;;;;;;;;;;;27.20;78.80;;;;;;5055417;28;20007;-67
2022/05/31 12:39:33;;;;;;;;;;;27.70;78.50;;;;;;5083697;28;20733;-66
2022/05/31 12:42:15;;;;;;;;;;;28.00;79.10;;;;;;5080758;28;20354;-63
2022/05/31 12:44:45;;;;;;;;;;;28.20;78.70;;;;;;5078767;28;19924;-67
2022/05/31 12:47:27;;;;;;;;;;;28.20;77.70;;;;;;5084231;28;20294;-66
2022/05/31 12:49:55;;;;;;;;;;;28.10;77.80;;;;;;5087602;28;19967;-66
2022/05/31 12:52:31;;;;;;;;;;;28.20;76.70;;;;;;5079781;28;19928;-63
2022/05/31 12:54:58;;;;;;;;;;;28.10;77.20;;;;;;5088424;28;19925;-66
2022/05/31 13:00:28;;;;;;;;;;;27.10;76.70;;;;;;5082920;28;20605;-66
2022/05/31 13:02:56;;;;;;;;;;;27.10;76.50;;;;;;5085375;28;19997;-63
2022/05/31 13:05:30;;;;;;;;;;;27.50;77.60;;;;;;5086722;28;20011;-66
2022/05/31 13:08:29;;;;;;;;;;;27.80;76.10;;;;;;5071794;28;19930;-65
2022/05/31 13:22:13;;;;;;;;;;;27.90;76.70;;;;;;5073879;28;19932;-66
2022/05/31 13:24:48;;;;;;;;;;;27.60;75.80;;;;;;5081523;28;20329;-65
2022/05/31 13:27:22;;;;;;;;;;;27.50;77.50;;;;;;5084303;28;20447;-66
2022/05/31 13:30:01;;;;;;;;;;;27.40;77.20;;;;;;5081806;28;19930;-70
2022/05/31 13:32:32;;;;;;;;;;;26.90;77.50;;;;;;5081986;28;19931;-72
2022/05/31 13:35:04;;;;;;;;;;;26.60;78.30;;;;;;5083412;28;19928;-67
2022/05/31 13:37:31;;;;;;;;;;;26.60;78.60;;;;;;5080593;28;20027;-69
2022/05/31 13:39:58;;;;;;;;;;;26.60;77.80;;;;;;5087669;28;20097;-69
2022/05/31 13:42:34;;;;;;;;;;;26.50;77.20;;;;;;5078405;28;19932;-72
2022/05/31 13:45:06;;;;;;;;;;;26.00;78.50;;;;;;5085341;28;19942;-70
2022/05/31 13:47:33;;;;;;;;;;;26.00;79.90;;;;;;5088521;28;19924;-70
2022/05/31 13:50:06;;;;;;;;;;;26.00;78.50;;;;;;5084480;28;20007;-69
2022/05/31 13:52:33;;;;;;;;;;;26.00;77.90;;;;;;5084731;28;19924;-66
2022/05/31 13:55:10;;;;;;;;;;;26.30;79.00;;;;;;5084549;28;20653;-66
2022/05/31 13:57:47;;;;;;;;;;;26.50;79.10;;;;;;5077715;28;20421;-66
2022/05/31 14:00:29;;;;;;;;;;;27.20;78.10;;;;;;5079654;28;19929;-67
2022/05/31 14:03:05;;;;;;;;;;;28.50;76.60;;;;;;5081139;28;19931;-62
2022/05/31 14:05:35;;;;;;;;;;;29.80;75.90;;;;;;5080895;28;19928;-67
2022/05/31 14:08:09;;;;;;;;;;;30.90;74.10;;;;;;5078976;28;20387;-66
2022/05/31 14:10:44;;;;;;;;;;;31.20;72.80;;;;;;5088283;28;21511;-66
2022/05/31 14:13:18;;;;;;;;;;;31.60;72.60;;;;;;5077072;28;19928;-68
2022/05/31 14:15:45;;;;;;;;;;;31.30;72.70;;;;;;5087078;28;19947;-68
2022/05/31 14:18:13;;;;;;;;;;;30.90;73.10;;;;;;5085754;28;19924;-66
2022/05/31 14:20:43;;;;;;;;;;;30.30;72.90;;;;;;5083327;28;19928;-66
2022/05/31 14:23:17;;;;;;;;;;;29.70;73.90;;;;;;5091472;28;19928;-67
2022/05/31 14:25:46;;;;;;;;;;;29.70;75.00;;;;;;5087877;28;19935;-69
2022/05/31 14:28:15;;;;;;;;;;;30.50;74.60;;;;;;5090952;28;20035;-64
2022/05/31 14:30:54;;;;;;;;;;;31.40;72.50;;;;;;5086479;28;19930;-67
2022/05/31 14:33:21;;;;;;;;;;;31.00;71.60;;;;;;5080290;28;20376;-67
2022/05/31 14:35:50;;;;;;;;;;;30.90;71.80;;;;;;5086914;28;20481;-66
2022/05/31 14:38:25;;;;;;;;;;;30.10;72.30;;;;;;5081569;28;19932;-63
2022/05/31 14:40:54;;;;;;;;;;;29.10;74.40;;;;;;5079682;28;19932;-62
2022/05/31 14:43:50;;;;;;;;;;;28.00;74.30;;;;;;5076605;28;19932;-66
2022/05/31 14:46:28;;;;;;;;;;;27.80;76.90;;;;;;5064385;28;19924;-64
2022/05/31 14:49:04;;;;;;;;;;;29.40;76.30;;;;;;5063075;28;19925;-63
2022/05/31 14:51:33;;;;;;;;;;;30.20;74.20;;;;;;5063962;28;20454;-66
2022/05/31 14:54:00;;;;;;;;;;;31.00;73.50;;;;;;5054509;28;20023;-67
2022/05/31 14:56:29;;;;;;;;;;;31.70;72.60;;;;;;5049453;28;20491;-67
2022/05/31 14:59:03;;;;;;;;;;;32.40;72.90;;;;;;5062178;28;19931;-67
2022/05/31 15:01:32;;;;;;;;;;;33.00;71.20;;;;;;5055256;28;19928;-66
2022/05/31 15:04:07;;;;;;;;;;;32.60;71.50;;;;;;5059154;28;19967;-66
2022/05/31 15:06:38;;;;;;;;;;;32.40;72.20;;;;;;5065540;28;19924;-66
2022/05/31 15:09:06;;;;;;;;;;;32.50;71.10;;;;;;5061840;28;19936;-65
2022/05/31 15:19:58;;;;;;;;;;;31.50;71.40;;;;;;5063177;28;19931;-63
2022/05/31 15:22:26;;;;;;;;;;;29.60;72.30;;;;;;5064017;28;19931;-65
2022/05/31 15:24:56;;;;;;;;;;;27.90;74.60;;;;;;5075768;28;19950;-63
2022/05/31 15:27:23;;;;;;;;;;;26.30;77.10;;;;;;5079150;28;19924;-66
2022/05/31 15:29:51;;;;;;;;;;;25.50;89.40;;;;;;5087622;28;20659;-65
2022/05/31 15:32:19;;;;;;;;;;;25.30;91.40;;;;;;5081164;28;19928;-65
2022/05/31 15:34:47;;;;;;;;;;;25.10;91.80;;;;;;5083622;28;20406;-66
2022/05/31 15:37:17;;;;;;;;;;;24.90;98.30;;;;;;5079357;28;19934;-66
2022/05/31 15:39:44;;;;;;;;;;;25.20;81.10;;;;;;5077855;28;19932;-64